sensor_id;sensor_type;location;lat;lon;timestamp;temperature;humidity
13093;DHT22;6612;49.568;11.000;2022-09-02T00:01:11;18.00;43.70
13093;DHT22;6612;49.568;11.000;2022-09-02T00:03:38;18.00;43.90
13093;DHT22;6612;49.568;11.000;2022-09-02T00:06:05;18.00;43.80
13093;DHT22;6612;49.568;11.000;2022-09-02T00:08:32;18.00;43.80
13093;DHT22;6612;49.568;11.000;2022-09-02T00:11:01;18.00;43.80
13093;DHT22;6612;49.568;11.000;2022-09-02T00:13:32;17.90;43.90
13093;DHT22;6612;49.568;11.000;2022-09-02T00:15:59;17.90;43.90
13093;DHT22;6612;49.568;11.000;2022-09-02T00:18:26;17.90;43.90
13093;DHT22;6612;49.568;11.000;2022-09-02T00:20:53;17.90;44.00
13093;DHT22;6612;49.568;11.000;2022-09-02T00:23:20;17.80;44.00
13093;DHT22;6612;49.568;11.000;2022-09-02T00:25:47;17.80;44.10
13093;DHT22;6612;49.568;11.000;2022-09-02T00:28:16;17.80;44.20
13093;DHT22;6612;49.568;11.000;2022-09-02T00:30:44;17.80;44.40
13093;DHT22;6612;49.568;11.000;2022-09-02T00:33:12;17.70;44.40
13093;DHT22;6612;49.568;11.000;2022-09-02T00:35:39;17.70;44.40
13093;DHT22;6612;49.568;11.000;2022-09-02T00:38:08;17.60;44.40
13093;DHT22;6612;49.568;11.000;2022-09-02T00:40:36;17.60;44.60
13093;DHT22;6612;49.568;11.000;2022-09-02T00:43:05;17.60;44.80
13093;DHT22;6612;49.568;11.000;2022-09-02T00:45:34;17.50;44.90
13093;DHT22;6612;49.568;11.000;2022-09-02T00:48:03;17.50;44.90
13093;DHT22;6612;49.568;11.000;2022-09-02T00:50:33;17.50;45.00
13093;DHT22;6612;49.568;11.000;2022-09-02T00:53:05;17.40;45.10
13093;DHT22;6612;49.568;11.000;2022-09-02T00:55:35;17.40;45.30
13093;DHT22;6612;49.568;11.000;2022-09-02T00:58:06;17.30;45.20
13093;DHT22;6612;49.568;11.000;2022-09-02T01:00:42;17.30;45.30
13093;DHT22;6612;49.568;11.000;2022-09-02T01:03:13;17.30;46.10
13093;DHT22;6612;49.568;11.000;2022-09-02T01:05:43;17.20;45.40
13093;DHT22;6612;49.568;11.000;2022-09-02T01:08:11;17.20;45.50
13093;DHT22;6612;49.568;11.000;2022-09-02T01:10:39;17.20;45.50
13093;DHT22;6612;49.568;11.000;2022-09-02T01:13:09;17.20;45.50
13093;DHT22;6612;49.568;11.000;2022-09-02T01:15:40;17.10;45.60
13093;DHT22;6612;49.568;11.000;2022-09-02T01:18:11;17.10;45.80
13093;DHT22;6612;49.568;11.000;2022-09-02T01:20:38;17.00;45.70
13093;DHT22;6612;49.568;11.000;2022-09-02T01:23:07;17.00;45.80
13093;DHT22;6612;49.568;11.000;2022-09-02T01:25:34;16.90;45.90
13093;DHT22;6612;49.568;11.000;2022-09-02T01:28:04;16.90;45.90
13093;DHT22;6612;49.568;11.000;2022-09-02T01:30:33;16.90;46.20
13093;DHT22;6612;49.568;11.000;2022-09-02T01:33:00;16.90;46.20
13093;DHT22;6612;49.568;11.000;2022-09-02T01:35:28;16.80;46.20
13093;DHT22;6612;49.568;11.000;2022-09-02T01:37:56;16.80;46.40
13093;DHT22;6612;49.568;11.000;2022-09-02T01:40:26;16.80;46.50
13093;DHT22;6612;49.568;11.000;2022-09-02T01:42:56;16.70;46.60
13093;DHT22;6612;49.568;11.000;2022-09-02T01:45:24;16.70;46.60
13093;DHT22;6612;49.568;11.000;2022-09-02T01:47:51;16.70;46.50
13093;DHT22;6612;49.568;11.000;2022-09-02T01:50:18;16.70;46.60
13093;DHT22;6612;49.568;11.000;2022-09-02T01:52:45;16.70;46.70
13093;DHT22;6612;49.568;11.000;2022-09-02T01:55:12;16.70;46.70
13093;DHT22;6612;49.568;11.000;2022-09-02T01:57:40;16.60;46.60
13093;DHT22;6612;49.568;11.000;2022-09-02T02:00:10;16.60;46.80
13093;DHT22;6612;49.568;11.000;2022-09-02T02:02:38;16.60;46.90
13093;DHT22;6612;49.568;11.000;2022-09-02T02:05:05;16.60;46.90
13093;DHT22;6612;49.568;11.000;2022-09-02T02:07:32;16.50;46.90
13093;DHT22;6612;49.568;11.000;2022-09-02T02:09:59;16.50;46.90
13093;DHT22;6612;49.568;11.000;2022-09-02T02:12:26;16.50;47.10
13093;DHT22;6612;49.568;11.000;2022-09-02T02:14:55;16.50;47.20
13093;DHT22;6612;49.568;11.000;2022-09-02T02:17:22;16.50;47.30
13093;DHT22;6612;49.568;11.000;2022-09-02T02:19:49;16.40;47.10
13093;DHT22;6612;49.568;11.000;2022-09-02T02:22:16;16.40;47.30
13093;DHT22;6612;49.568;11.000;2022-09-02T02:24:43;16.40;47.40
13093;DHT22;6612;49.568;11.000;2022-09-02T02:27:10;16.40;47.50
13093;DHT22;6612;49.568;11.000;2022-09-02T02:29:37;16.30;47.40
13093;DHT22;6612;49.568;11.000;2022-09-02T02:32:06;16.30;47.50
13093;DHT22;6612;49.568;11.000;2022-09-02T02:34:33;16.30;47.60
13093;DHT22;6612;49.568;11.000;2022-09-02T02:37:00;16.20;47.50
13093;DHT22;6612;49.568;11.000;2022-09-02T02:39:27;16.20;47.50
13093;DHT22;6612;49.568;11.000;2022-09-02T02:41:55;16.20;47.60
13093;DHT22;6612;49.568;11.000;2022-09-02T02:44:22;16.10;47.70
13093;DHT22;6612;49.568;11.000;2022-09-02T02:46:49;16.10;47.70
13093;DHT22;6612;49.568;11.000;2022-09-02T02:49:18;16.10;47.20
13093;DHT22;6612;49.568;11.000;2022-09-02T02:51:45;16.10;47.40
13093;DHT22;6612;49.568;11.000;2022-09-02T02:54:12;15.90;47.80
13093;DHT22;6612;49.568;11.000;2022-09-02T02:56:40;15.90;47.80
13093;DHT22;6612;49.568;11.000;2022-09-02T02:59:07;15.90;48.00
13093;DHT22;6612;49.568;11.000;2022-09-02T03:01:35;15.80;47.50
13093;DHT22;6612;49.568;11.000;2022-09-02T03:04:03;15.70;48.00
13093;DHT22;6612;49.568;11.000;2022-09-02T03:06:32;15.70;48.10
13093;DHT22;6612;49.568;11.000;2022-09-02T03:09:00;15.70;48.20
13093;DHT22;6612;49.568;11.000;2022-09-02T03:11:27;15.60;47.70
13093;DHT22;6612;49.568;11.000;2022-09-02T03:13:55;15.60;48.20
13093;DHT22;6612;49.568;11.000;2022-09-02T03:16:22;15.60;48.30
13093;DHT22;6612;49.568;11.000;2022-09-02T03:18:50;15.50;48.20
13093;DHT22;6612;49.568;11.000;2022-09-02T03:21:17;15.50;48.30
13093;DHT22;6612;49.568;11.000;2022-09-02T03:23:47;15.50;48.50
13093;DHT22;6612;49.568;11.000;2022-09-02T03:26:16;15.40;48.70
13093;DHT22;6612;49.568;11.000;2022-09-02T03:28:43;15.40;48.70
13093;DHT22;6612;49.568;11.000;2022-09-02T03:31:14;15.40;48.70
13093;DHT22;6612;49.568;11.000;2022-09-02T03:33:41;15.30;48.80
13093;DHT22;6612;49.568;11.000;2022-09-02T03:36:18;15.30;48.70
13093;DHT22;6612;49.568;11.000;2022-09-02T03:38:47;15.30;49.40
13093;DHT22;6612;49.568;11.000;2022-09-02T03:41:14;15.20;48.90
13093;DHT22;6612;49.568;11.000;2022-09-02T03:43:41;15.20;48.80
13093;DHT22;6612;49.568;11.000;2022-09-02T03:46:09;15.20;48.90
13093;DHT22;6612;49.568;11.000;2022-09-02T03:48:36;15.10;48.90
13093;DHT22;6612;49.568;11.000;2022-09-02T03:51:04;15.10;49.00
13093;DHT22;6612;49.568;11.000;2022-09-02T03:53:31;15.00;49.00
13093;DHT22;6612;49.568;11.000;2022-09-02T03:56:05;15.00;49.00
13093;DHT22;6612;49.568;11.000;2022-09-02T03:58:32;15.00;49.50
13093;DHT22;6612;49.568;11.000;2022-09-02T04:01:00;15.00;49.20
13093;DHT22;6612;49.568;11.000;2022-09-02T04:03:27;14.90;49.20
13093;DHT22;6612;49.568;11.000;2022-09-02T04:05:54;14.90;49.20
13093;DHT22;6612;49.568;11.000;2022-09-02T04:08:22;14.90;49.30
13093;DHT22;6612;49.568;11.000;2022-09-02T04:10:49;14.80;49.40
13093;DHT22;6612;49.568;11.000;2022-09-02T04:13:18;14.80;49.50
13093;DHT22;6612;49.568;11.000;2022-09-02T04:15:46;14.80;49.70
13093;DHT22;6612;49.568;11.000;2022-09-02T04:18:14;14.80;49.70
13093;DHT22;6612;49.568;11.000;2022-09-02T04:20:42;14.70;49.70
13093;DHT22;6612;49.568;11.000;2022-09-02T04:23:10;14.70;49.70
13093;DHT22;6612;49.568;11.000;2022-09-02T04:25:39;14.70;49.80
13093;DHT22;6612;49.568;11.000;2022-09-02T04:28:07;14.70;49.90
13093;DHT22;6612;49.568;11.000;2022-09-02T04:30:38;14.60;49.80
13093;DHT22;6612;49.568;11.000;2022-09-02T04:33:06;14.60;50.30
13093;DHT22;6612;49.568;11.000;2022-09-02T04:35:33;14.60;50.00
13093;DHT22;6612;49.568;11.000;2022-09-02T04:38:01;14.60;50.70
13093;DHT22;6612;49.568;11.000;2022-09-02T04:40:28;14.60;50.10
13093;DHT22;6612;49.568;11.000;2022-09-02T04:42:56;14.60;50.20
13093;DHT22;6612;49.568;11.000;2022-09-02T04:45:23;14.60;50.30
13093;DHT22;6612;49.568;11.000;2022-09-02T04:47:52;14.50;50.30
13093;DHT22;6612;49.568;11.000;2022-09-02T04:50:19;14.50;50.50
13093;DHT22;6612;49.568;11.000;2022-09-02T04:52:46;14.50;50.40
13093;DHT22;6612;49.568;11.000;2022-09-02T04:55:13;14.50;50.60
13093;DHT22;6612;49.568;11.000;2022-09-02T04:57:40;14.50;50.60
13093;DHT22;6612;49.568;11.000;2022-09-02T05:00:09;14.50;50.70
13093;DHT22;6612;49.568;11.000;2022-09-02T05:02:36;14.60;51.00
13093;DHT22;6612;49.568;11.000;2022-09-02T05:05:06;14.60;51.10
13093;DHT22;6612;49.568;11.000;2022-09-02T05:07:35;14.60;51.50
13093;DHT22;6612;49.568;11.000;2022-09-02T05:10:03;14.70;51.70
13093;DHT22;6612;49.568;11.000;2022-09-02T05:12:31;14.80;51.80
13093;DHT22;6612;49.568;11.000;2022-09-02T05:15:00;14.90;51.90
13093;DHT22;6612;49.568;11.000;2022-09-02T05:17:28;15.00;52.00
13093;DHT22;6612;49.568;11.000;2022-09-02T05:19:56;15.10;52.20
13093;DHT22;6612;49.568;11.000;2022-09-02T05:22:25;15.20;52.30
13093;DHT22;6612;49.568;11.000;2022-09-02T05:24:54;15.30;52.50
13093;DHT22;6612;49.568;11.000;2022-09-02T05:27:21;15.50;52.50
13093;DHT22;6612;49.568;11.000;2022-09-02T05:29:49;15.60;52.70
13093;DHT22;6612;49.568;11.000;2022-09-02T05:32:16;15.80;53.30
13093;DHT22;6612;49.568;11.000;2022-09-02T05:34:43;16.20;54.20
13093;DHT22;6612;49.568;11.000;2022-09-02T05:37:10;16.60;55.00
13093;DHT22;6612;49.568;11.000;2022-09-02T05:39:39;17.10;55.60
13093;DHT22;6612;49.568;11.000;2022-09-02T05:42:06;17.70;55.50
13093;DHT22;6612;49.568;11.000;2022-09-02T05:44:34;18.30;55.50
13093;DHT22;6612;49.568;11.000;2022-09-02T05:47:01;18.80;54.90
13093;DHT22;6612;49.568;11.000;2022-09-02T05:49:30;19.30;53.60
13093;DHT22;6612;49.568;11.000;2022-09-02T05:51:58;19.60;52.30
13093;DHT22;6612;49.568;11.000;2022-09-02T05:54:27;19.80;51.50
13093;DHT22;6612;49.568;11.000;2022-09-02T05:56:58;20.00;50.90
13093;DHT22;6612;49.568;11.000;2022-09-02T05:59:27;20.20;50.80
13093;DHT22;6612;49.568;11.000;2022-09-02T06:01:55;20.40;50.70
13093;DHT22;6612;49.568;11.000;2022-09-02T06:04:23;20.80;50.50
13093;DHT22;6612;49.568;11.000;2022-09-02T06:06:50;21.10;50.80
13093;DHT22;6612;49.568;11.000;2022-09-02T06:09:19;21.50;50.80
13093;DHT22;6612;49.568;11.000;2022-09-02T06:11:48;21.90;50.60
13093;DHT22;6612;49.568;11.000;2022-09-02T06:14:18;22.40;50.00
13093;DHT22;6612;49.568;11.000;2022-09-02T06:16:47;22.80;49.00
13093;DHT22;6612;49.568;11.000;2022-09-02T06:19:15;23.30;48.60
13093;DHT22;6612;49.568;11.000;2022-09-02T06:21:41;23.90;48.10
13093;DHT22;6612;49.568;11.000;2022-09-02T06:24:10;24.00;47.50
13093;DHT22;6612;49.568;11.000;2022-09-02T06:26:38;24.40;47.00
13093;DHT22;6612;49.568;11.000;2022-09-02T06:29:06;25.00;47.30
13093;DHT22;6612;49.568;11.000;2022-09-02T06:31:34;25.80;49.00
13093;DHT22;6612;49.568;11.000;2022-09-02T06:34:02;26.10;46.40
13093;DHT22;6612;49.568;11.000;2022-09-02T06:36:29;26.70;45.70
13093;DHT22;6612;49.568;11.000;2022-09-02T06:38:57;27.30;44.60
13093;DHT22;6612;49.568;11.000;2022-09-02T06:41:27;27.80;43.90
13093;DHT22;6612;49.568;11.000;2022-09-02T06:43:56;28.30;43.10
13093;DHT22;6612;49.568;11.000;2022-09-02T06:46:28;28.90;43.10
13093;DHT22;6612;49.568;11.000;2022-09-02T06:48:57;29.50;42.20
13093;DHT22;6612;49.568;11.000;2022-09-02T06:51:26;30.10;41.30
13093;DHT22;6612;49.568;11.000;2022-09-02T06:53:53;30.70;40.30
13093;DHT22;6612;49.568;11.000;2022-09-02T06:56:20;31.20;39.80
13093;DHT22;6612;49.568;11.000;2022-09-02T06:58:47;31.60;38.40
13093;DHT22;6612;49.568;11.000;2022-09-02T07:01:17;31.90;36.70
13093;DHT22;6612;49.568;11.000;2022-09-02T07:03:45;32.00;35.00
13093;DHT22;6612;49.568;11.000;2022-09-02T07:06:33;32.00;35.00
13093;DHT22;6612;49.568;11.000;2022-09-02T07:09:02;31.90;33.50
13093;DHT22;6612;49.568;11.000;2022-09-02T07:11:30;31.70;32.40
13093;DHT22;6612;49.568;11.000;2022-09-02T07:13:57;31.60;32.50
13093;DHT22;6612;49.568;11.000;2022-09-02T07:16:26;31.40;32.10
13093;DHT22;6612;49.568;11.000;2022-09-02T07:18:53;31.10;31.80
13093;DHT22;6612;49.568;11.000;2022-09-02T07:21:20;30.80;31.80
13093;DHT22;6612;49.568;11.000;2022-09-02T07:23:49;30.60;32.10
13093;DHT22;6612;49.568;11.000;2022-09-02T07:26:16;30.40;31.80
13093;DHT22;6612;49.568;11.000;2022-09-02T07:28:44;30.20;31.90
13093;DHT22;6612;49.568;11.000;2022-09-02T07:31:13;29.90;31.90
13093;DHT22;6612;49.568;11.000;2022-09-02T07:33:41;29.80;32.30
13093;DHT22;6612;49.568;11.000;2022-09-02T07:36:10;29.60;32.80
13093;DHT22;6612;49.568;11.000;2022-09-02T07:38:38;29.60;33.00
13093;DHT22;6612;49.568;11.000;2022-09-02T07:41:08;29.50;33.20
13093;DHT22;6612;49.568;11.000;2022-09-02T07:43:38;29.50;33.10
13093;DHT22;6612;49.568;11.000;2022-09-02T07:46:06;29.50;33.40
13093;DHT22;6612;49.568;11.000;2022-09-02T07:48:34;29.60;33.50
13093;DHT22;6612;49.568;11.000;2022-09-02T07:51:02;29.70;33.50
13093;DHT22;6612;49.568;11.000;2022-09-02T07:53:29;29.90;33.50
13093;DHT22;6612;49.568;11.000;2022-09-02T07:55:57;30.20;33.30
13093;DHT22;6612;49.568;11.000;2022-09-02T07:58:26;30.40;32.50
13093;DHT22;6612;49.568;11.000;2022-09-02T08:00:53;30.50;31.50
13093;DHT22;6612;49.568;11.000;2022-09-02T08:03:23;30.50;31.00
13093;DHT22;6612;49.568;11.000;2022-09-02T08:05:50;30.40;30.60
13093;DHT22;6612;49.568;11.000;2022-09-02T08:08:18;30.20;30.20
13093;DHT22;6612;49.568;11.000;2022-09-02T08:10:46;29.90;30.20
13093;DHT22;6612;49.568;11.000;2022-09-02T08:13:13;29.50;30.10
13093;DHT22;6612;49.568;11.000;2022-09-02T08:15:42;29.10;30.50
13093;DHT22;6612;49.568;11.000;2022-09-02T08:18:10;28.80;30.70
13093;DHT22;6612;49.568;11.000;2022-09-02T08:20:37;28.50;31.10
13093;DHT22;6612;49.568;11.000;2022-09-02T08:23:05;28.20;31.00
13093;DHT22;6612;49.568;11.000;2022-09-02T08:25:32;27.90;31.10
13093;DHT22;6612;49.568;11.000;2022-09-02T08:27:59;27.70;31.50
13093;DHT22;6612;49.568;11.000;2022-09-02T08:30:27;27.40;31.60
13093;DHT22;6612;49.568;11.000;2022-09-02T08:32:55;27.20;31.70
13093;DHT22;6612;49.568;11.000;2022-09-02T08:35:22;27.00;32.00
13093;DHT22;6612;49.568;11.000;2022-09-02T08:37:49;26.80;32.40
13093;DHT22;6612;49.568;11.000;2022-09-02T08:40:18;26.70;32.40
13093;DHT22;6612;49.568;11.000;2022-09-02T08:42:48;26.70;32.70
13093;DHT22;6612;49.568;11.000;2022-09-02T08:45:21;26.60;32.90
13093;DHT22;6612;49.568;11.000;2022-09-02T08:48:03;26.60;33.10
13093;DHT22;6612;49.568;11.000;2022-09-02T08:50:34;26.60;32.80
13093;DHT22;6612;49.568;11.000;2022-09-02T08:53:06;26.60;32.70
13093;DHT22;6612;49.568;11.000;2022-09-02T08:55:43;26.50;32.70
13093;DHT22;6612;49.568;11.000;2022-09-02T08:58:15;26.40;32.90
13093;DHT22;6612;49.568;11.000;2022-09-02T09:00:45;26.40;33.10
13093;DHT22;6612;49.568;11.000;2022-09-02T09:03:24;26.40;33.30
13093;DHT22;6612;49.568;11.000;2022-09-02T09:05:58;26.40;32.10
13093;DHT22;6612;49.568;11.000;2022-09-02T09:08:32;26.50;32.50
13093;DHT22;6612;49.568;11.000;2022-09-02T09:11:03;26.50;32.90
13093;DHT22;6612;49.568;11.000;2022-09-02T09:13:58;26.50;32.50
13093;DHT22;6612;49.568;11.000;2022-09-02T09:16:34;26.50;32.20
13093;DHT22;6612;49.568;11.000;2022-09-02T09:19:09;26.40;31.80
13093;DHT22;6612;49.568;11.000;2022-09-02T09:21:37;26.50;32.00
13093;DHT22;6612;49.568;11.000;2022-09-02T09:24:09;26.40;32.00
13093;DHT22;6612;49.568;11.000;2022-09-02T09:26:40;26.50;30.80
13093;DHT22;6612;49.568;11.000;2022-09-02T09:29:07;26.60;31.40
13093;DHT22;6612;49.568;11.000;2022-09-02T09:31:35;26.80;31.30
13093;DHT22;6612;49.568;11.000;2022-09-02T09:34:06;26.80;31.50
13093;DHT22;6612;49.568;11.000;2022-09-02T09:36:46;26.90;31.10
13093;DHT22;6612;49.568;11.000;2022-09-02T09:39:19;26.90;30.00
13093;DHT22;6612;49.568;11.000;2022-09-02T09:41:47;26.80;30.10
13093;DHT22;6612;49.568;11.000;2022-09-02T09:44:34;26.80;30.10
13093;DHT22;6612;49.568;11.000;2022-09-02T09:47:03;26.80;29.70
13093;DHT22;6612;49.568;11.000;2022-09-02T09:49:33;26.60;30.20
13093;DHT22;6612;49.568;11.000;2022-09-02T09:52:00;26.60;29.60
13093;DHT22;6612;49.568;11.000;2022-09-02T09:54:27;26.60;29.70
13093;DHT22;6612;49.568;11.000;2022-09-02T09:56:54;26.50;29.20
13093;DHT22;6612;49.568;11.000;2022-09-02T09:59:38;26.40;29.80
13093;DHT22;6612;49.568;11.000;2022-09-02T10:02:14;26.50;30.30
13093;DHT22;6612;49.568;11.000;2022-09-02T10:04:45;26.60;31.00
13093;DHT22;6612;49.568;11.000;2022-09-02T10:07:13;26.90;30.90
13093;DHT22;6612;49.568;11.000;2022-09-02T10:09:40;27.20;31.20
13093;DHT22;6612;49.568;11.000;2022-09-02T10:12:09;27.70;30.60
13093;DHT22;6612;49.568;11.000;2022-09-02T10:14:38;28.10;29.80
13093;DHT22;6612;49.568;11.000;2022-09-02T10:17:26;28.40;29.40
13093;DHT22;6612;49.568;11.000;2022-09-02T10:20:01;28.50;27.90
13093;DHT22;6612;49.568;11.000;2022-09-02T10:23:00;28.60;26.90
13093;DHT22;6612;49.568;11.000;2022-09-02T10:25:35;28.50;26.80
13093;DHT22;6612;49.568;11.000;2022-09-02T10:28:15;28.30;26.60
13093;DHT22;6612;49.568;11.000;2022-09-02T10:30:52;28.10;26.60
13093;DHT22;6612;49.568;11.000;2022-09-02T10:33:32;27.90;26.40
13093;DHT22;6612;49.568;11.000;2022-09-02T10:36:09;27.80;26.40
13093;DHT22;6612;49.568;11.000;2022-09-02T10:38:40;27.70;26.80
13093;DHT22;6612;49.568;11.000;2022-09-02T10:41:23;27.60;26.90
13093;DHT22;6612;49.568;11.000;2022-09-02T10:44:01;27.50;27.10
13093;DHT22;6612;49.568;11.000;2022-09-02T10:46:35;27.50;26.90
13093;DHT22;6612;49.568;11.000;2022-09-02T10:49:12;27.50;27.40
13093;DHT22;6612;49.568;11.000;2022-09-02T10:51:50;27.60;27.80
13093;DHT22;6612;49.568;11.000;2022-09-02T10:54:32;27.60;27.50
13093;DHT22;6612;49.568;11.000;2022-09-02T10:57:05;27.70;27.40
13093;DHT22;6612;49.568;11.000;2022-09-02T10:59:39;27.80;27.80
13093;DHT22;6612;49.568;11.000;2022-09-02T11:02:12;27.90;27.80
13093;DHT22;6612;49.568;11.000;2022-09-02T11:04:42;28.00;27.70
13093;DHT22;6612;49.568;11.000;2022-09-02T11:07:16;28.10;27.80
13093;DHT22;6612;49.568;11.000;2022-09-02T11:09:48;28.10;27.40
13093;DHT22;6612;49.568;11.000;2022-09-02T11:12:18;28.10;27.90
13093;DHT22;6612;49.568;11.000;2022-09-02T11:14:55;28.00;27.40
13093;DHT22;6612;49.568;11.000;2022-09-02T11:17:30;27.90;27.30
13093;DHT22;6612;49.568;11.000;2022-09-02T11:20:04;27.80;27.60
13093;DHT22;6612;49.568;11.000;2022-09-02T11:22:41;27.70;27.90
13093;DHT22;6612;49.568;11.000;2022-09-02T11:25:14;27.70;28.00
13093;DHT22;6612;49.568;11.000;2022-09-02T11:27:47;27.70;28.00
13093;DHT22;6612;49.568;11.000;2022-09-02T11:30:17;27.70;27.70
13093;DHT22;6612;49.568;11.000;2022-09-02T11:32:50;27.60;27.80
13093;DHT22;6612;49.568;11.000;2022-09-02T11:35:21;27.50;27.90
13093;DHT22;6612;49.568;11.000;2022-09-02T11:37:55;27.40;27.90
13093;DHT22;6612;49.568;11.000;2022-09-02T11:40:26;27.30;27.90
13093;DHT22;6612;49.568;11.000;2022-09-02T11:43:07;27.10;28.00
13093;DHT22;6612;49.568;11.000;2022-09-02T11:49:03;27.00;28.30
13093;DHT22;6612;49.568;11.000;2022-09-02T11:51:57;26.90;28.60
13093;DHT22;6612;49.568;11.000;2022-09-02T11:54:32;26.90;28.80
13093;DHT22;6612;49.568;11.000;2022-09-02T11:57:03;26.80;28.90
13093;DHT22;6612;49.568;11.000;2022-09-02T12:00:06;26.80;28.90
13093;DHT22;6612;49.568;11.000;2022-09-02T12:02:45;26.80;28.80
13093;DHT22;6612;49.568;11.000;2022-09-02T12:05:44;26.70;28.70
13093;DHT22;6612;49.568;11.000;2022-09-02T12:08:12;26.70;28.90
13093;DHT22;6612;49.568;11.000;2022-09-02T12:11:04;26.70;29.00
13093;DHT22;6612;49.568;11.000;2022-09-02T12:13:36;26.70;28.80
13093;DHT22;6612;49.568;11.000;2022-09-02T12:16:39;26.70;28.60
13093;DHT22;6612;49.568;11.000;2022-09-02T12:19:27;26.60;28.60
13093;DHT22;6612;49.568;11.000;2022-09-02T12:27:48;26.40;29.00
13093;DHT22;6612;49.568;11.000;2022-09-02T12:33:32;26.40;28.80
13093;DHT22;6612;49.568;11.000;2022-09-02T12:35:59;26.40;29.00
13093;DHT22;6612;49.568;11.000;2022-09-02T12:38:38;26.50;29.00
13093;DHT22;6612;49.568;11.000;2022-09-02T12:41:19;26.50;29.10
13093;DHT22;6612;49.568;11.000;2022-09-02T12:44:07;26.50;29.10
13093;DHT22;6612;49.568;11.000;2022-09-02T12:46:48;26.60;28.70
13093;DHT22;6612;49.568;11.000;2022-09-02T12:49:27;26.60;28.60
13093;DHT22;6612;49.568;11.000;2022-09-02T12:52:00;26.60;28.50
13093;DHT22;6612;49.568;11.000;2022-09-02T12:54:35;26.60;28.70
13093;DHT22;6612;49.568;11.000;2022-09-02T12:57:02;26.50;28.40
13093;DHT22;6612;49.568;11.000;2022-09-02T12:59:32;26.50;28.40
13093;DHT22;6612;49.568;11.000;2022-09-02T13:02:07;26.50;28.40
13093;DHT22;6612;49.568;11.000;2022-09-02T13:04:45;26.40;28.20
13093;DHT22;6612;49.568;11.000;2022-09-02T13:07:50;26.40;28.50
13093;DHT22;6612;49.568;11.000;2022-09-02T13:10:37;26.40;28.50
13093;DHT22;6612;49.568;11.000;2022-09-02T13:13:32;26.40;28.50
13093;DHT22;6612;49.568;11.000;2022-09-02T13:16:11;26.40;28.30
13093;DHT22;6612;49.568;11.000;2022-09-02T13:25:06;26.30;28.50
13093;DHT22;6612;49.568;11.000;2022-09-02T13:28:01;26.20;28.60
13093;DHT22;6612;49.568;11.000;2022-09-02T13:30:49;26.20;28.60
13093;DHT22;6612;49.568;11.000;2022-09-02T13:33:18;26.20;28.80
13093;DHT22;6612;49.568;11.000;2022-09-02T13:35:45;26.20;28.80
13093;DHT22;6612;49.568;11.000;2022-09-02T13:38:22;26.20;29.00
13093;DHT22;6612;49.568;11.000;2022-09-02T13:40:51;26.20;28.70
13093;DHT22;6612;49.568;11.000;2022-09-02T13:43:19;26.10;28.60
13093;DHT22;6612;49.568;11.000;2022-09-02T13:45:48;26.10;28.60
13093;DHT22;6612;49.568;11.000;2022-09-02T13:48:16;26.10;28.60
13093;DHT22;6612;49.568;11.000;2022-09-02T13:50:46;26.10;28.60
13093;DHT22;6612;49.568;11.000;2022-09-02T13:53:20;26.00;28.70
13093;DHT22;6612;49.568;11.000;2022-09-02T13:55:53;26.00;28.60
13093;DHT22;6612;49.568;11.000;2022-09-02T13:58:32;26.00;28.50
13093;DHT22;6612;49.568;11.000;2022-09-02T14:01:22;26.00;28.40
13093;DHT22;6612;49.568;11.000;2022-09-02T14:03:50;26.00;28.60
13093;DHT22;6612;49.568;11.000;2022-09-02T14:06:21;26.00;28.60
13093;DHT22;6612;49.568;11.000;2022-09-02T14:08:50;26.00;28.70
13093;DHT22;6612;49.568;11.000;2022-09-02T14:11:20;25.90;28.70
13093;DHT22;6612;49.568;11.000;2022-09-02T14:13:48;25.90;28.70
13093;DHT22;6612;49.568;11.000;2022-09-02T14:16:30;25.90;28.70
13093;DHT22;6612;49.568;11.000;2022-09-02T14:21:31;25.80;28.40
13093;DHT22;6612;49.568;11.000;2022-09-02T14:23:58;25.80;28.70
13093;DHT22;6612;49.568;11.000;2022-09-02T14:26:33;25.80;28.60
13093;DHT22;6612;49.568;11.000;2022-09-02T14:29:01;25.80;28.70
13093;DHT22;6612;49.568;11.000;2022-09-02T14:31:28;26.00;28.60
13093;DHT22;6612;49.568;11.000;2022-09-02T14:33:59;25.70;28.80
13093;DHT22;6612;49.568;11.000;2022-09-02T14:36:33;25.80;28.80
13093;DHT22;6612;49.568;11.000;2022-09-02T14:39:11;25.70;28.70
13093;DHT22;6612;49.568;11.000;2022-09-02T14:41:45;25.80;28.50
13093;DHT22;6612;49.568;11.000;2022-09-02T14:44:17;25.70;28.70
13093;DHT22;6612;49.568;11.000;2022-09-02T14:46:48;25.70;28.70
13093;DHT22;6612;49.568;11.000;2022-09-02T14:49:21;25.70;28.80
13093;DHT22;6612;49.568;11.000;2022-09-02T14:51:50;25.60;28.50
13093;DHT22;6612;49.568;11.000;2022-09-02T14:54:38;25.60;28.60
13093;DHT22;6612;49.568;11.000;2022-09-02T14:57:20;25.60;28.40
13093;DHT22;6612;49.568;11.000;2022-09-02T14:59:47;25.60;28.50
13093;DHT22;6612;49.568;11.000;2022-09-02T15:02:29;25.50;28.70
13093;DHT22;6612;49.568;11.000;2022-09-02T15:04:59;25.50;28.70
13093;DHT22;6612;49.568;11.000;2022-09-02T15:07:27;25.50;28.90
13093;DHT22;6612;49.568;11.000;2022-09-02T15:09:54;25.50;29.10
13093;DHT22;6612;49.568;11.000;2022-09-02T15:12:26;25.50;29.10
13093;DHT22;6612;49.568;11.000;2022-09-02T15:14:55;25.50;29.00
13093;DHT22;6612;49.568;11.000;2022-09-02T15:17:23;25.50;29.10
13093;DHT22;6612;49.568;11.000;2022-09-02T15:19:50;25.50;29.50
13093;DHT22;6612;49.568;11.000;2022-09-02T15:22:18;25.40;28.90
13093;DHT22;6612;49.568;11.000;2022-09-02T15:24:45;25.40;29.10
13093;DHT22;6612;49.568;11.000;2022-09-02T15:27:14;25.40;29.10
13093;DHT22;6612;49.568;11.000;2022-09-02T15:29:43;25.40;29.10
13093;DHT22;6612;49.568;11.000;2022-09-02T15:32:10;25.40;29.10
13093;DHT22;6612;49.568;11.000;2022-09-02T15:34:37;25.40;29.10
13093;DHT22;6612;49.568;11.000;2022-09-02T15:37:04;25.40;29.10
13093;DHT22;6612;49.568;11.000;2022-09-02T15:39:31;25.40;29.10
13093;DHT22;6612;49.568;11.000;2022-09-02T15:41:58;25.30;29.10
13093;DHT22;6612;49.568;11.000;2022-09-02T15:44:25;25.30;29.10
13093;DHT22;6612;49.568;11.000;2022-09-02T15:46:54;25.30;29.10
13093;DHT22;6612;49.568;11.000;2022-09-02T15:49:22;25.30;29.10
13093;DHT22;6612;49.568;11.000;2022-09-02T15:51:50;25.30;29.10
13093;DHT22;6612;49.568;11.000;2022-09-02T15:54:19;25.30;29.20
13093;DHT22;6612;49.568;11.000;2022-09-02T15:56:47;25.30;29.30
13093;DHT22;6612;49.568;11.000;2022-09-02T15:59:15;25.30;29.20
13093;DHT22;6612;49.568;11.000;2022-09-02T16:01:44;25.20;28.80
13093;DHT22;6612;49.568;11.000;2022-09-02T16:04:13;25.20;29.00
13093;DHT22;6612;49.568;11.000;2022-09-02T16:06:41;25.20;29.00
13093;DHT22;6612;49.568;11.000;2022-09-02T16:09:11;25.20;29.00
13093;DHT22;6612;49.568;11.000;2022-09-02T16:11:38;25.20;28.70
13093;DHT22;6612;49.568;11.000;2022-09-02T16:14:05;25.20;29.10